sensor_id;sensor_type;location;lat;lon;timestamp;pressure;altitude;pressure_sealevel;temperature;humidity
24160;BME280;62385;41.594;23.808;2023-06-14T00:00:52;95102.50;;;17.68;79.08
24160;BME280;62385;41.594;23.808;2023-06-14T00:03:18;95110.19;;;17.83;78.70
24160;BME280;62385;41.594;23.808;2023-06-14T00:05:45;95105.41;;;17.85;79.00
24160;BME280;62385;41.594;23.808;2023-06-14T00:08:12;95106.56;;;18.07;78.34
24160;BME280;62385;41.594;23.808;2023-06-14T00:10:37;95108.38;;;18.13;78.00
24160;BME280;62385;41.594;23.808;2023-06-14T00:13:04;95097.94;;;17.87;78.22
24160;BME280;62385;41.594;23.808;2023-06-14T00:15:31;95091.22;;;17.78;79.11
24160;BME280;62385;41.594;23.808;2023-06-14T00:17:57;95093.72;;;17.79;79.15
24160;BME280;62385;41.594;23.808;2023-06-14T00:20:30;95083.69;;;17.86;78.56
24160;BME280;62385;41.594;23.808;2023-06-14T00:22:56;95091.59;;;17.99;78.68
24160;BME280;62385;41.594;23.808;2023-06-14T00:25:23;95093.75;;;18.09;78.04
24160;BME280;62385;41.594;23.808;2023-06-14T00:27:51;95094.44;;;18.05;78.75
24160;BME280;62385;41.594;23.808;2023-06-14T00:30:17;95092.88;;;17.97;78.81
24160;BME280;62385;41.594;23.808;2023-06-14T00:32:43;95087.78;;;17.89;79.10
24160;BME280;62385;41.594;23.808;2023-06-14T00:35:09;95081.97;;;17.92;79.33
24160;BME280;62385;41.594;23.808;2023-06-14T00:37:36;95085.09;;;18.07;79.11
24160;BME280;62385;41.594;23.808;2023-06-14T00:40:02;95095.78;;;17.77;79.95
24160;BME280;62385;41.594;23.808;2023-06-14T00:42:30;95089.88;;;17.69;80.08
24160;BME280;62385;41.594;23.808;2023-06-14T00:44:56;95081.38;;;17.53;80.62
24160;BME280;62385;41.594;23.808;2023-06-14T00:47:23;95083.63;;;17.75;80.20
24160;BME280;62385;41.594;23.808;2023-06-14T00:49:53;95070.19;;;17.38;80.78
24160;BME280;62385;41.594;23.808;2023-06-14T00:52:20;95082.28;;;17.23;81.79
24160;BME280;62385;41.594;23.808;2023-06-14T00:54:46;95071.88;;;17.33;81.44
24160;BME280;62385;41.594;23.808;2023-06-14T00:57:12;95075.09;;;17.41;80.96
24160;BME280;62385;41.594;23.808;2023-06-14T00:59:47;95075.63;;;17.50;80.59
24160;BME280;62385;41.594;23.808;2023-06-14T01:02:14;95073.63;;;17.45;80.16
24160;BME280;62385;41.594;23.808;2023-06-14T01:04:46;95069.53;;;17.43;80.37
24160;BME280;62385;41.594;23.808;2023-06-14T01:10:29;95066.53;;;17.33;81.31
24160;BME280;62385;41.594;23.808;2023-06-14T01:15:43;95062.41;;;17.48;80.39
24160;BME280;62385;41.594;23.808;2023-06-14T01:18:09;95060.94;;;17.34;80.47
24160;BME280;62385;41.594;23.808;2023-06-14T01:20:43;95062.13;;;17.38;81.10
24160;BME280;62385;41.594;23.808;2023-06-14T01:23:11;95062.50;;;17.42;80.70
24160;BME280;62385;41.594;23.808;2023-06-14T01:25:40;95063.09;;;17.44;80.54
24160;BME280;62385;41.594;23.808;2023-06-14T01:28:11;95059.84;;;17.60;79.83
24160;BME280;62385;41.594;23.808;2023-06-14T01:30:44;95065.84;;;17.37;80.43
24160;BME280;62385;41.594;23.808;2023-06-14T01:33:22;95057.34;;;17.40;80.22
24160;BME280;62385;41.594;23.808;2023-06-14T01:35:51;95073.97;;;17.49;79.58
24160;BME280;62385;41.594;23.808;2023-06-14T01:38:22;95060.69;;;17.36;80.10
24160;BME280;62385;41.594;23.808;2023-06-14T01:40:49;95070.78;;;17.40;80.16
24160;BME280;62385;41.594;23.808;2023-06-14T01:43:18;95070.97;;;17.64;79.76
24160;BME280;62385;41.594;23.808;2023-06-14T01:45:45;95062.31;;;17.80;79.56
24160;BME280;62385;41.594;23.808;2023-06-14T01:48:12;95053.22;;;17.63;81.12
24160;BME280;62385;41.594;23.808;2023-06-14T01:50:39;95059.44;;;17.57;82.13
24160;BME280;62385;41.594;23.808;2023-06-14T01:53:08;95068.63;;;17.85;81.87
24160;BME280;62385;41.594;23.808;2023-06-14T01:55:36;95059.94;;;17.72;82.26
24160;BME280;62385;41.594;23.808;2023-06-14T01:58:09;95067.59;;;17.68;81.67
24160;BME280;62385;41.594;23.808;2023-06-14T02:00:35;95071.09;;;17.69;81.62
24160;BME280;62385;41.594;23.808;2023-06-14T02:03:01;95077.84;;;17.60;81.83
24160;BME280;62385;41.594;23.808;2023-06-14T02:05:29;95071.91;;;17.69;81.95
24160;BME280;62385;41.594;23.808;2023-06-14T02:07:55;95076.38;;;17.57;82.37
24160;BME280;62385;41.594;23.808;2023-06-14T02:10:21;95071.97;;;17.44;82.81
24160;BME280;62385;41.594;23.808;2023-06-14T02:13:07;95079.19;;;17.44;83.48
24160;BME280;62385;41.594;23.808;2023-06-14T02:15:33;95073.63;;;17.45;83.21
24160;BME280;62385;41.594;23.808;2023-06-14T02:18:02;95077.88;;;17.35;83.51
24160;BME280;62385;41.594;23.808;2023-06-14T02:20:28;95081.81;;;17.50;82.51
24160;BME280;62385;41.594;23.808;2023-06-14T02:22:56;95077.69;;;17.48;81.81
24160;BME280;62385;41.594;23.808;2023-06-14T02:25:22;95067.84;;;17.24;82.91
24160;BME280;62385;41.594;23.808;2023-06-14T02:27:48;95080.06;;;17.20;83.31
24160;BME280;62385;41.594;23.808;2023-06-14T02:30:14;95077.41;;;17.38;83.01
24160;BME280;62385;41.594;23.808;2023-06-14T02:32:40;95076.44;;;17.50;82.15
24160;BME280;62385;41.594;23.808;2023-06-14T02:35:08;95076.13;;;17.40;82.57
24160;BME280;62385;41.594;23.808;2023-06-14T02:37:34;95058.69;;;17.13;83.94
24160;BME280;62385;41.594;23.808;2023-06-14T02:40:00;95065.84;;;17.37;83.25
24160;BME280;62385;41.594;23.808;2023-06-14T02:42:26;95071.53;;;17.47;82.54
24160;BME280;62385;41.594;23.808;2023-06-14T02:44:52;95071.09;;;17.50;82.26
24160;BME280;62385;41.594;23.808;2023-06-14T02:47:20;95083.91;;;17.48;82.29
24160;BME280;62385;41.594;23.808;2023-06-14T02:49:46;95095.69;;;17.47;82.73
24160;BME280;62385;41.594;23.808;2023-06-14T02:52:15;95092.97;;;17.29;83.34
24160;BME280;62385;41.594;23.808;2023-06-14T02:54:40;95095.59;;;17.36;83.18
24160;BME280;62385;41.594;23.808;2023-06-14T02:57:07;95099.16;;;17.48;83.04
24160;BME280;62385;41.594;23.808;2023-06-14T02:59:34;95104.63;;;17.41;83.46
24160;BME280;62385;41.594;23.808;2023-06-14T03:02:01;95098.13;;;17.31;83.51
24160;BME280;62385;41.594;23.808;2023-06-14T03:04:27;95100.25;;;17.47;82.57
24160;BME280;62385;41.594;23.808;2023-06-14T03:06:54;95083.38;;;17.40;83.11
24160;BME280;62385;41.594;23.808;2023-06-14T03:09:22;95110.19;;;17.40;83.53
24160;BME280;62385;41.594;23.808;2023-06-14T03:11:47;95110.00;;;17.41;83.41
24160;BME280;62385;41.594;23.808;2023-06-14T03:14:13;95111.47;;;17.37;83.51
24160;BME280;62385;41.594;23.808;2023-06-14T03:16:41;95115.56;;;17.40;83.47
24160;BME280;62385;41.594;23.808;2023-06-14T03:19:09;95114.59;;;17.34;83.92
24160;BME280;62385;41.594;23.808;2023-06-14T03:21:35;95119.16;;;17.34;83.61
24160;BME280;62385;41.594;23.808;2023-06-14T03:24:02;95120.50;;;17.43;83.05
24160;BME280;62385;41.594;23.808;2023-06-14T03:26:29;95120.94;;;17.40;83.08
24160;BME280;62385;41.594;23.808;2023-06-14T03:28:57;95112.88;;;17.40;82.88
24160;BME280;62385;41.594;23.808;2023-06-14T03:31:23;95118.91;;;17.35;82.74
24160;BME280;62385;41.594;23.808;2023-06-14T03:33:49;95122.22;;;17.37;82.96
24160;BME280;62385;41.594;23.808;2023-06-14T03:36:16;95129.16;;;17.45;83.19
24160;BME280;62385;41.594;23.808;2023-06-14T03:38:43;95118.00;;;17.23;82.97
24160;BME280;62385;41.594;23.808;2023-06-14T03:41:10;95118.44;;;17.20;83.71
24160;BME280;62385;41.594;23.808;2023-06-14T03:43:35;95135.81;;;17.18;83.92
24160;BME280;62385;41.594;23.808;2023-06-14T03:46:01;95118.69;;;17.37;83.25
24160;BME280;62385;41.594;23.808;2023-06-14T03:48:29;95136.66;;;17.61;82.50
24160;BME280;62385;41.594;23.808;2023-06-14T03:50:55;95141.25;;;17.54;82.36
24160;BME280;62385;41.594;23.808;2023-06-14T03:53:21;95137.16;;;17.51;82.18
24160;BME280;62385;41.594;23.808;2023-06-14T03:55:50;95137.16;;;17.51;82.12
24160;BME280;62385;41.594;23.808;2023-06-14T03:58:19;95138.19;;;17.50;82.31
24160;BME280;62385;41.594;23.808;2023-06-14T04:00:46;95139.69;;;17.46;82.67
24160;BME280;62385;41.594;23.808;2023-06-14T04:03:11;95139.28;;;17.68;81.78
24160;BME280;62385;41.594;23.808;2023-06-14T04:05:39;95147.91;;;17.70;81.24
24160;BME280;62385;41.594;23.808;2023-06-14T04:08:08;95149.28;;;17.54;81.37
24160;BME280;62385;41.594;23.808;2023-06-14T04:10:35;95137.28;;;17.57;81.16
24160;BME280;62385;41.594;23.808;2023-06-14T04:13:01;95128.28;;;17.51;80.70
24160;BME280;62385;41.594;23.808;2023-06-14T04:15:27;95133.63;;;17.76;80.59
24160;BME280;62385;41.594;23.808;2023-06-14T04:17:58;95140.03;;;17.75;80.57
24160;BME280;62385;41.594;23.808;2023-06-14T04:20:24;95143.59;;;17.69;80.51
24160;BME280;62385;41.594;23.808;2023-06-14T04:22:51;95139.28;;;17.68;80.00
24160;BME280;62385;41.594;23.808;2023-06-14T04:25:16;95143.38;;;17.70;80.08
24160;BME280;62385;41.594;23.808;2023-06-14T04:27:43;95143.69;;;17.80;79.94
24160;BME280;62385;41.594;23.808;2023-06-14T04:30:10;95146.81;;;17.77;80.34
24160;BME280;62385;41.594;23.808;2023-06-14T04:32:41;95139.28;;;17.86;80.12
24160;BME280;62385;41.594;23.808;2023-06-14T04:35:26;95139.19;;;17.74;80.70
24160;BME280;62385;41.594;23.808;2023-06-14T04:37:56;95144.91;;;18.14;79.19
24160;BME280;62385;41.594;23.808;2023-06-14T04:40:23;95152.72;;;18.04;79.14
24160;BME280;62385;41.594;23.808;2023-06-14T04:42:48;95154.56;;;18.04;79.07
24160;BME280;62385;41.594;23.808;2023-06-14T04:45:17;95159.22;;;18.63;77.41
24160;BME280;62385;41.594;23.808;2023-06-14T04:47:44;95163.97;;;18.61;77.23
24160;BME280;62385;41.594;23.808;2023-06-14T04:50:10;95171.00;;;18.62;77.75
24160;BME280;62385;41.594;23.808;2023-06-14T04:52:36;95168.38;;;18.85;76.72
24160;BME280;62385;41.594;23.808;2023-06-14T04:55:04;95168.28;;;18.80;77.49
24160;BME280;62385;41.594;23.808;2023-06-14T04:57:31;95174.84;;;18.84;77.05
24160;BME280;62385;41.594;23.808;2023-06-14T04:59:58;95167.72;;;19.01;76.04
24160;BME280;62385;41.594;23.808;2023-06-14T05:02:28;95179.47;;;18.77;77.52
24160;BME280;62385;41.594;23.808;2023-06-14T05:04:56;95174.91;;;18.77;77.57
24160;BME280;62385;41.594;23.808;2023-06-14T05:07:22;95185.38;;;18.37;79.57
24160;BME280;62385;41.594;23.808;2023-06-14T05:09:50;95171.38;;;18.65;78.17
24160;BME280;62385;41.594;23.808;2023-06-14T05:12:16;95179.63;;;18.82;77.41
24160;BME280;62385;41.594;23.808;2023-06-14T05:14:45;95184.78;;;18.83;77.76
24160;BME280;62385;41.594;23.808;2023-06-14T05:17:11;95178.66;;;18.76;77.43
24160;BME280;62385;41.594;23.808;2023-06-14T05:19:36;95191.88;;;18.78;77.69
24160;BME280;62385;41.594;23.808;2023-06-14T05:22:02;95191.88;;;18.78;78.16
24160;BME280;62385;41.594;23.808;2023-06-14T05:24:28;95192.38;;;19.28;76.41
24160;BME280;62385;41.594;23.808;2023-06-14T05:26:57;95179.03;;;19.21;76.43
24160;BME280;62385;41.594;23.808;2023-06-14T05:29:22;95187.19;;;19.26;75.77
24160;BME280;62385;41.594;23.808;2023-06-14T05:31:48;95191.88;;;19.19;75.79
24160;BME280;62385;41.594;23.808;2023-06-14T05:34:13;95196.38;;;19.37;76.30
24160;BME280;62385;41.594;23.808;2023-06-14T05:36:39;95191.38;;;19.11;76.49
24160;BME280;62385;41.594;23.808;2023-06-14T05:39:04;95194.94;;;19.34;75.76
24160;BME280;62385;41.594;23.808;2023-06-14T05:41:31;95196.09;;;19.15;76.76
24160;BME280;62385;41.594;23.808;2023-06-14T05:43:57;95192.53;;;19.45;75.24
24160;BME280;62385;41.594;23.808;2023-06-14T05:46:23;95189.50;;;19.53;75.17
24160;BME280;62385;41.594;23.808;2023-06-14T05:48:54;95185.63;;;19.83;74.09
24160;BME280;62385;41.594;23.808;2023-06-14T05:51:20;95186.47;;;19.61;74.40
24160;BME280;62385;41.594;23.808;2023-06-14T05:53:47;95196.66;;;19.70;74.49
24160;BME280;62385;41.594;23.808;2023-06-14T05:56:13;95196.19;;;19.73;73.64
24160;BME280;62385;41.594;23.808;2023-06-14T05:58:39;95186.91;;;19.81;73.71
24160;BME280;62385;41.594;23.808;2023-06-14T06:01:05;95197.94;;;19.91;73.37
24160;BME280;62385;41.594;23.808;2023-06-14T06:03:31;95197.81;;;19.74;73.42
24160;BME280;62385;41.594;23.808;2023-06-14T06:05:56;95190.66;;;20.03;72.35
24160;BME280;62385;41.594;23.808;2023-06-14T06:08:22;95187.00;;;20.09;72.06
24160;BME280;62385;41.594;23.808;2023-06-14T06:10:48;95196.75;;;19.99;71.45
24160;BME280;62385;41.594;23.808;2023-06-14T06:13:13;95193.25;;;19.98;71.78
24160;BME280;62385;41.594;23.808;2023-06-14T06:15:39;95194.53;;;19.84;72.55
24160;BME280;62385;41.594;23.808;2023-06-14T06:18:05;95196.63;;;20.05;70.78
24160;BME280;62385;41.594;23.808;2023-06-14T06:20:31;95200.81;;;20.13;71.32
24160;BME280;62385;41.594;23.808;2023-06-14T06:22:58;95196.25;;;20.13;71.43
24160;BME280;62385;41.594;23.808;2023-06-14T06:25:25;95197.41;;;20.41;70.50
24160;BME280;62385;41.594;23.808;2023-06-14T06:27:51;95198.13;;;20.13;71.21
24160;BME280;62385;41.594;23.808;2023-06-14T06:30:18;95203.53;;;20.24;71.26
24160;BME280;62385;41.594;23.808;2023-06-14T06:32:43;95202.31;;;20.44;71.00
24160;BME280;62385;41.594;23.808;2023-06-14T06:35:09;95191.13;;;20.63;69.30
24160;BME280;62385;41.594;23.808;2023-06-14T06:37:36;95205.13;;;20.49;70.69
24160;BME280;62385;41.594;23.808;2023-06-14T06:40:02;95202.44;;;20.77;69.06
24160;BME280;62385;41.594;23.808;2023-06-14T06:42:34;95198.22;;;20.81;69.26
24160;BME280;62385;41.594;23.808;2023-06-14T06:45:03;95200.03;;;20.92;68.93
24160;BME280;62385;41.594;23.808;2023-06-14T06:47:29;95198.69;;;20.78;68.77
24160;BME280;62385;41.594;23.808;2023-06-14T06:49:54;95201.09;;;20.63;69.39
24160;BME280;62385;41.594;23.808;2023-06-14T06:52:20;95200.31;;;20.79;69.23
24160;BME280;62385;41.594;23.808;2023-06-14T06:54:45;95202.50;;;21.22;68.73
24160;BME280;62385;41.594;23.808;2023-06-14T06:57:12;95188.38;;;21.32;68.53
24160;BME280;62385;41.594;23.808;2023-06-14T06:59:38;95196.06;;;20.83;69.07
24160;BME280;62385;41.594;23.808;2023-06-14T07:02:05;95188.09;;;20.88;68.89
24160;BME280;62385;41.594;23.808;2023-06-14T07:04:30;95191.13;;;21.20;68.11
24160;BME280;62385;41.594;23.808;2023-06-14T07:06:56;95184.31;;;21.17;67.67
24160;BME280;62385;41.594;23.808;2023-06-14T07:09:22;95190.88;;;21.22;68.65
24160;BME280;62385;41.594;23.808;2023-06-14T07:11:50;95192.63;;;21.78;65.78
24160;BME280;62385;41.594;23.808;2023-06-14T07:14:15;95192.25;;;21.74;66.62
24160;BME280;62385;41.594;23.808;2023-06-14T07:16:41;95189.50;;;22.02;64.90
24160;BME280;62385;41.594;23.808;2023-06-14T07:19:08;95188.94;;;22.66;62.88
24160;BME280;62385;41.594;23.808;2023-06-14T07:21:34;95179.28;;;22.70;63.33
24160;BME280;62385;41.594;23.808;2023-06-14T07:24:00;95182.47;;;22.45;63.99
24160;BME280;62385;41.594;23.808;2023-06-14T07:26:26;95180.28;;;22.42;63.45
24160;BME280;62385;41.594;23.808;2023-06-14T07:28:51;95189.44;;;22.63;63.89
24160;BME280;62385;41.594;23.808;2023-06-14T07:31:18;95186.13;;;22.55;62.62
24160;BME280;62385;41.594;23.808;2023-06-14T07:33:44;95178.31;;;22.59;62.93
24160;BME280;62385;41.594;23.808;2023-06-14T07:36:10;95185.41;;;22.22;63.84
24160;BME280;62385;41.594;23.808;2023-06-14T07:38:35;95180.97;;;22.54;62.09
24160;BME280;62385;41.594;23.808;2023-06-14T07:41:02;95176.50;;;22.65;61.38
24160;BME280;62385;41.594;23.808;2023-06-14T07:43:27;95174.25;;;22.35;62.18
24160;BME280;62385;41.594;23.808;2023-06-14T07:45:53;95173.56;;;22.44;61.36
24160;BME280;62385;41.594;23.808;2023-06-14T07:48:19;95183.72;;;22.59;61.22
24160;BME280;62385;41.594;23.808;2023-06-14T07:50:44;95175.63;;;22.37;61.76
24160;BME280;62385;41.594;23.808;2023-06-14T07:53:10;95187.84;;;22.40;61.66
24160;BME280;62385;41.594;23.808;2023-06-14T07:55:36;95177.97;;;22.72;61.14
24160;BME280;62385;41.594;23.808;2023-06-14T07:58:03;95173.97;;;23.07;59.64
24160;BME280;62385;41.594;23.808;2023-06-14T08:00:29;95188.81;;;23.26;59.94
24160;BME280;62385;41.594;23.808;2023-06-14T08:02:55;95190.84;;;22.87;60.43
24160;BME280;62385;41.594;23.808;2023-06-14T08:05:25;95188.16;;;22.65;59.79
24160;BME280;62385;41.594;23.808;2023-06-14T08:07:51;95189.22;;;22.42;59.96
24160;BME280;62385;41.594;23.808;2023-06-14T08:10:17;95197.50;;;22.58;59.20
24160;BME280;62385;41.594;23.808;2023-06-14T08:12:43;95189.84;;;22.71;59.19
24160;BME280;62385;41.594;23.808;2023-06-14T08:15:09;95190.88;;;23.14;56.50
24160;BME280;62385;41.594;23.808;2023-06-14T08:17:35;95191.47;;;23.21;56.33
24160;BME280;62385;41.594;23.808;2023-06-14T08:20:02;95193.31;;;22.88;57.57
24160;BME280;62385;41.594;23.808;2023-06-14T08:22:30;95188.88;;;22.82;57.86
24160;BME280;62385;41.594;23.808;2023-06-14T08:24:58;95182.44;;;23.42;56.46
24160;BME280;62385;41.594;23.808;2023-06-14T08:27:23;95184.34;;;23.41;55.69
24160;BME280;62385;41.594;23.808;2023-06-14T08:29:49;95179.28;;;23.50;55.27
24160;BME280;62385;41.594;23.808;2023-06-14T08:32:15;95181.13;;;23.44;54.50
24160;BME280;62385;41.594;23.808;2023-06-14T08:34:40;95184.59;;;23.67;54.82
24160;BME280;62385;41.594;23.808;2023-06-14T08:37:06;95188.94;;;23.68;55.54
24160;BME280;62385;41.594;23.808;2023-06-14T08:39:32;95191.63;;;24.05;55.43
24160;BME280;62385;41.594;23.808;2023-06-14T08:41:58;95185.47;;;23.77;53.59
24160;BME280;62385;41.594;23.808;2023-06-14T08:44:24;95187.09;;;23.78;53.85
24160;BME280;62385;41.594;23.808;2023-06-14T08:46:50;95186.84;;;23.80;52.92
24160;BME280;62385;41.594;23.808;2023-06-14T08:49:19;95178.34;;;23.66;54.22
24160;BME280;62385;41.594;23.808;2023-06-14T08:51:45;95181.81;;;23.99;55.36
24160;BME280;62385;41.594;23.808;2023-06-14T08:54:14;95180.75;;;24.00;53.31
24160;BME280;62385;41.594;23.808;2023-06-14T08:56:40;95175.41;;;24.10;52.14
24160;BME280;62385;41.594;23.808;2023-06-14T08:59:07;95168.53;;;24.44;52.05
24160;BME280;62385;41.594;23.808;2023-06-14T09:01:35;95167.19;;;24.00;53.36
24160;BME280;62385;41.594;23.808;2023-06-14T09:04:01;95166.66;;;24.50;51.76
24160;BME280;62385;41.594;23.808;2023-06-14T09:06:28;95163.50;;;24.78;53.02
24160;BME280;62385;41.594;23.808;2023-06-14T09:08:55;95166.91;;;24.43;53.08
24160;BME280;62385;41.594;23.808;2023-06-14T09:11:23;95175.09;;;24.53;54.99
24160;BME280;62385;41.594;23.808;2023-06-14T09:13:49;95160.88;;;24.26;51.40
24160;BME280;62385;41.594;23.808;2023-06-14T09:16:15;95160.25;;;24.81;50.56
24160;BME280;62385;41.594;23.808;2023-06-14T09:18:43;95151.13;;;25.43;49.61
24160;BME280;62385;41.594;23.808;2023-06-14T09:21:11;95149.63;;;24.69;49.94
24160;BME280;62385;41.594;23.808;2023-06-14T09:23:39;95157.66;;;24.44;50.30
24160;BME280;62385;41.594;23.808;2023-06-14T09:26:08;95157.09;;;25.14;50.13
24160;BME280;62385;41.594;23.808;2023-06-14T09:28:35;95153.13;;;24.65;53.07
24160;BME280;62385;41.594;23.808;2023-06-14T09:31:01;95163.38;;;23.96;56.63
24160;BME280;62385;41.594;23.808;2023-06-14T09:33:27;95153.66;;;23.31;58.82
24160;BME280;62385;41.594;23.808;2023-06-14T09:35:56;95163.47;;;23.42;58.39
24160;BME280;62385;41.594;23.808;2023-06-14T09:38:40;95166.84;;;22.95;57.90
24160;BME280;62385;41.594;23.808;2023-06-14T09:41:06;95166.28;;;23.47;56.88
24160;BME280;62385;41.594;23.808;2023-06-14T09:43:33;95160.16;;;24.04;58.08
24160;BME280;62385;41.594;23.808;2023-06-14T09:46:19;95155.69;;;24.24;56.83
24160;BME280;62385;41.594;23.808;2023-06-14T09:48:45;95149.47;;;24.29;55.49
24160;BME280;62385;41.594;23.808;2023-06-14T09:51:13;95161.91;;;23.83;56.21
24160;BME280;62385;41.594;23.808;2023-06-14T09:53:41;95159.94;;;23.68;55.88
24160;BME280;62385;41.594;23.808;2023-06-14T09:56:09;95150.53;;;23.81;55.67
24160;BME280;62385;41.594;23.808;2023-06-14T09:58:39;95146.47;;;23.83;55.06
24160;BME280;62385;41.594;23.808;2023-06-14T10:01:08;95133.69;;;24.21;54.64
24160;BME280;62385;41.594;23.808;2023-06-14T10:03:34;95130.38;;;24.14;54.99
24160;BME280;62385;41.594;23.808;2023-06-14T10:06:03;95138.13;;;24.42;54.01
24160;BME280;62385;41.594;23.808;2023-06-14T10:08:52;95144.94;;;24.50;54.99
24160;BME280;62385;41.594;23.808;2023-06-14T10:11:23;95134.56;;;25.34;51.92
24160;BME280;62385;41.594;23.808;2023-06-14T10:13:50;95131.59;;;25.56;53.04
24160;BME280;62385;41.594;23.808;2023-06-14T10:16:27;95135.06;;;25.06;54.01
24160;BME280;62385;41.594;23.808;2023-06-14T10:19:06;95140.81;;;25.35;50.96
24160;BME280;62385;41.594;23.808;2023-06-14T10:21:43;95148.44;;;25.68;50.81
24160;BME280;62385;41.594;23.808;2023-06-14T10:24:13;95136.75;;;25.42;51.15
24160;BME280;62385;41.594;23.808;2023-06-14T10:26:54;95131.03;;;25.49;52.14
24160;BME280;62385;41.594;23.808;2023-06-14T10:29:19;95133.50;;;25.76;52.26
24160;BME280;62385;41.594;23.808;2023-06-14T10:31:50;95137.00;;;25.36;52.94
24160;BME280;62385;41.594;23.808;2023-06-14T10:34:23;95135.41;;;25.60;51.18
24160;BME280;62385;41.594;23.808;2023-06-14T10:37:05;95136.72;;;25.47;53.13
24160;BME280;62385;41.594;23.808;2023-06-14T10:39:38;95138.66;;;25.77;53.73
24160;BME280;62385;41.594;23.808;2023-06-14T10:42:06;95138.09;;;25.90;53.47
24160;BME280;62385;41.594;23.808;2023-06-14T10:44:54;95123.81;;;26.44;52.67
24160;BME280;62385;41.594;23.808;2023-06-14T10:47:34;95133.44;;;26.21;52.43
24160;BME280;62385;41.594;23.808;2023-06-14T10:52:27;95135.56;;;26.19;52.09
24160;BME280;62385;41.594;23.808;2023-06-14T10:55:16;95135.63;;;25.94;52.19
24160;BME280;62385;41.594;23.808;2023-06-14T10:57:48;95137.53;;;26.03;51.49
24160;BME280;62385;41.594;23.808;2023-06-14T11:00:33;95125.84;;;26.77;50.56
24160;BME280;62385;41.594;23.808;2023-06-14T11:03:39;95139.19;;;25.44;52.45
24160;BME280;62385;41.594;23.808;2023-06-14T11:06:13;95136.34;;;26.40;50.77
24160;BME280;62385;41.594;23.808;2023-06-14T11:11:42;95137.28;;;25.95;51.51
24160;BME280;62385;41.594;23.808;2023-06-14T11:14:08;95133.63;;;26.45;50.65
24160;BME280;62385;41.594;23.808;2023-06-14T11:16:33;95122.50;;;26.26;49.93
24160;BME280;62385;41.594;23.808;2023-06-14T11:19:02;95111.88;;;26.30;50.06
24160;BME280;62385;41.594;23.808;2023-06-14T11:21:34;95113.09;;;25.78;50.42
24160;BME280;62385;41.594;23.808;2023-06-14T11:24:10;95110.59;;;25.97;49.71
24160;BME280;62385;41.594;23.808;2023-06-14T11:26:37;95102.88;;;26.39;50.67
24160;BME280;62385;41.594;23.808;2023-06-14T11:29:03;95106.75;;;26.13;50.17
24160;BME280;62385;41.594;23.808;2023-06-14T11:31:29;95104.38;;;25.81;50.90
24160;BME280;62385;41.594;23.808;2023-06-14T11:33:59;95104.38;;;26.66;49.53
24160;BME280;62385;41.594;23.808;2023-06-14T11:36:29;95104.38;;;25.91;50.24
24160;BME280;62385;41.594;23.808;2023-06-14T11:39:03;95097.06;;;25.56;49.74
24160;BME280;62385;41.594;23.808;2023-06-14T11:41:34;95103.28;;;25.77;49.84
24160;BME280;62385;41.594;23.808;2023-06-14T11:44:01;95089.38;;;26.04;50.02
24160;BME280;62385;41.594;23.808;2023-06-14T11:46:27;95105.09;;;26.32;50.46
24160;BME280;62385;41.594;23.808;2023-06-14T11:48:52;95101.94;;;25.75;50.47
24160;BME280;62385;41.594;23.808;2023-06-14T11:51:18;95107.34;;;26.69;48.71
24160;BME280;62385;41.594;23.808;2023-06-14T11:53:44;95105.94;;;26.12;50.64
24160;BME280;62385;41.594;23.808;2023-06-14T11:56:11;95108.75;;;25.57;52.70
24160;BME280;62385;41.594;23.808;2023-06-14T11:58:36;95107.56;;;26.13;50.43
24160;BME280;62385;41.594;23.808;2023-06-14T12:01:05;95109.50;;;26.08;51.17
24160;BME280;62385;41.594;23.808;2023-06-14T12:03:31;95098.94;;;25.86;51.39
24160;BME280;62385;41.594;23.808;2023-06-14T12:06:07;95106.00;;;25.77;51.75
24160;BME280;62385;41.594;23.808;2023-06-14T12:08:37;95104.94;;;25.68;52.30
24160;BME280;62385;41.594;23.808;2023-06-14T12:11:13;95110.06;;;25.90;51.75
24160;BME280;62385;41.594;23.808;2023-06-14T12:13:39;95112.34;;;26.52;50.76
24160;BME280;62385;41.594;23.808;2023-06-14T12:16:07;95085.81;;;27.17;48.85
24160;BME280;62385;41.594;23.808;2023-06-14T12:18:35;95106.41;;;26.45;49.64
24160;BME280;62385;41.594;23.808;2023-06-14T12:21:03;95104.88;;;25.98;51.67
24160;BME280;62385;41.594;23.808;2023-06-14T12:23:49;95106.31;;;25.45;50.69
24160;BME280;62385;41.594;23.808;2023-06-14T12:26:16;95106.03;;;25.32;51.07
24160;BME280;62385;41.594;23.808;2023-06-14T12:28:46;95104.69;;;25.29;51.06
24160;BME280;62385;41.594;23.808;2023-06-14T12:31:13;95095.44;;;25.50;51.21
24160;BME280;62385;41.594;23.808;2023-06-14T12:33:42;95091.91;;;25.70;50.68
24160;BME280;62385;41.594;23.808;2023-06-14T12:36:09;95091.09;;;25.54;50.79
24160;BME280;62385;41.594;23.808;2023-06-14T12:38:37;95092.72;;;25.25;49.54
24160;BME280;62385;41.594;23.808;2023-06-14T12:41:21;95094.06;;;25.22;49.79
24160;BME280;62385;41.594;23.808;2023-06-14T12:43:48;95090.53;;;25.42;49.84
24160;BME280;62385;41.594;23.808;2023-06-14T12:46:13;95089.47;;;25.53;49.66
24160;BME280;62385;41.594;23.808;2023-06-14T12:48:39;95105.19;;;25.51;49.46
24160;BME280;62385;41.594;23.808;2023-06-14T12:51:04;95107.66;;;25.43;51.87
24160;BME280;62385;41.594;23.808;2023-06-14T12:53:31;95105.47;;;25.19;53.03
24160;BME280;62385;41.594;23.808;2023-06-14T12:55:57;95092.16;;;25.08;52.77
24160;BME280;62385;41.594;23.808;2023-06-14T12:58:23;95106.97;;;23.24;61.04
24160;BME280;62385;41.594;23.808;2023-06-14T13:00:49;95096.31;;;22.32;66.91
24160;BME280;62385;41.594;23.808;2023-06-14T13:03:15;95113.53;;;22.69;66.41
24160;BME280;62385;41.594;23.808;2023-06-14T13:05:41;95127.28;;;22.68;64.99